Time;durP1;ratioP1;P1;durP2;ratioP2;P2;SDS_P1;SDS_P2;PMS_P1;PMS_P2;Temp;Humidity;BMP_temperature;BMP_pressure;BME280_temperature;BME280_humidity;BME280_pressure;Samples;Min_cycle;Max_cycle;Signal;HPM_P1;HPM_P2
2022/05/28 00:00:59;;;;;;;1.33;1.23;;;15.80;99.90;;;;;;5032044;28;20669;-57
2022/05/28 00:03:27;;;;;;;1.60;1.50;;;15.80;99.90;;;;;;5031927;28;20179;-59
2022/05/28 00:05:53;;;;;;;1.50;1.40;;;15.80;99.90;;;;;;5031834;28;20254;-59
2022/05/28 00:08:19;;;;;;;1.73;1.63;;;15.90;99.90;;;;;;5031796;28;20254;-57
2022/05/28 00:10:45;;;;;;;1.80;1.70;;;15.90;99.90;;;;;;5031975;28;20176;-56
2022/05/28 00:13:12;;;;;;;1.50;1.40;;;16.00;99.90;;;;;;5031900;28;20633;-55
2022/05/28 00:15:38;;;;;;;1.43;1.33;;;16.00;99.90;;;;;;5031463;28;20207;-55
2022/05/28 00:18:04;;;;;;;1.80;1.70;;;15.90;99.90;;;;;;5032087;28;20575;-56
2022/05/28 00:20:30;;;;;;;1.70;1.60;;;15.90;99.90;;;;;;5031811;28;20183;-55
2022/05/28 00:22:55;;;;;;;2.00;1.80;;;15.70;99.90;;;;;;5031577;28;20191;-56
2022/05/28 00:25:21;;;;;;;1.80;1.70;;;15.70;99.90;;;;;;5031393;28;20235;-56
2022/05/28 00:27:47;;;;;;;2.17;1.70;;;15.60;99.90;;;;;;5031768;28;20180;-57
2022/05/28 00:30:16;;;;;;;2.03;1.83;;;15.50;99.90;;;;;;5031642;28;20180;-57
2022/05/28 00:32:42;;;;;;;2.50;1.83;;;15.40;99.90;;;;;;5031589;28;20305;-52
2022/05/28 00:35:12;;;;;;;2.40;1.70;;;15.20;99.90;;;;;;5031162;28;20588;-54
2022/05/28 00:37:37;;;;;;;1.57;1.47;;;15.20;99.90;;;;;;5031477;28;20176;-56
2022/05/28 00:40:06;;;;;;;1.97;1.50;;;16.10;99.90;;;;;;5031666;28;20186;-52
2022/05/28 00:42:32;;;;;;;4.00;1.77;;;15.10;99.90;;;;;;5031522;28;20211;-55
2022/05/28 00:44:57;;;;;;;1.77;1.67;;;15.10;99.90;;;;;;5031117;28;20602;-56
2022/05/28 00:47:24;;;;;;;1.80;1.70;;;15.10;99.90;;;;;;5031427;28;20250;-54
2022/05/28 00:49:51;;;;;;;2.10;1.90;;;15.00;99.90;;;;;;5031256;28;20164;-57
2022/05/28 00:52:20;;;;;;;1.87;1.70;;;15.00;99.90;;;;;;5031420;28;20171;-53
2022/05/28 00:54:47;;;;;;;1.97;1.60;;;14.90;99.90;;;;;;5030829;28;20214;-57
2022/05/28 00:57:15;;;;;;;2.30;1.63;;;14.90;99.90;;;;;;5031362;28;20360;-57
2022/05/28 00:59:42;;;;;;;2.03;1.60;;;14.90;99.90;;;;;;5031134;28;20176;-59
2022/05/28 01:02:21;;;;;;;2.63;1.77;;;14.90;99.90;;;;;;5030015;28;20545;-56
2022/05/28 01:04:50;;;;;;;2.33;1.70;;;15.00;99.90;;;;;;5030770;28;20699;-54
2022/05/28 01:07:18;;;;;;;2.03;1.93;;;14.90;99.90;;;;;;5032359;28;20172;-57
2022/05/28 01:09:56;;;;;;;2.20;2.07;;;14.80;99.90;;;;;;5031183;28;20255;-55
2022/05/28 01:12:42;;;;;;;2.73;2.03;;;14.60;99.90;;;;;;5035348;28;20191;-57
2022/05/28 01:15:16;;;;;;;1.97;1.77;;;14.50;99.90;;;;;;5034269;28;20223;-53
2022/05/28 01:17:51;;;;;;;3.10;2.27;;;14.40;99.90;;;;;;5035168;28;20172;-57
2022/05/28 01:20:21;;;;;;;2.87;2.20;;;14.40;99.90;;;;;;5033848;28;20172;-55
2022/05/28 01:23:01;;;;;;;3.73;2.20;;;14.30;99.90;;;;;;5035035;28;20160;-58
2022/05/28 01:25:49;;;;;;;2.57;2.17;;;14.30;99.90;;;;;;5034612;28;20317;-56
2022/05/28 01:28:18;;;;;;;2.33;2.13;;;14.40;99.90;;;;;;5034921;28;20178;-52
2022/05/28 01:30:46;;;;;;;2.40;2.20;;;14.40;99.90;;;;;;5034956;28;20187;-53
2022/05/28 01:33:13;;;;;;;4.50;2.43;;;14.50;99.90;;;;;;5034919;28;20190;-53
2022/05/28 01:35:40;;;;;;;2.50;2.30;;;14.50;99.90;;;;;;5034357;28;20208;-53
2022/05/28 01:38:07;;;;;;;3.20;2.20;;;14.50;99.90;;;;;;5034592;28;20175;-57
2022/05/28 01:40:34;;;;;;;2.67;2.10;;;14.50;99.90;;;;;;5033400;28;20174;-56
2022/05/28 01:43:04;;;;;;;2.77;2.00;;;14.50;99.90;;;;;;5034614;28;20174;-54
2022/05/28 01:45:32;;;;;;;2.43;2.23;;;14.60;99.90;;;;;;5034334;28;20283;-59
2022/05/28 01:48:04;;;;;;;4.63;2.20;;;14.70;99.90;;;;;;5034525;28;20180;-57
2022/05/28 01:50:33;;;;;;;6.57;2.83;;;14.70;99.90;;;;;;5034276;28;20537;-56
2022/05/28 01:53:02;;;;;;;2.40;2.10;;;14.60;99.90;;;;;;5034523;28;20175;-58
2022/05/28 01:55:34;;;;;;;2.30;2.20;;;14.70;99.90;;;;;;5034067;28;20227;-53
2022/05/28 01:58:00;;;;;;;2.70;2.20;;;14.60;99.90;;;;;;5034385;28;20175;-52
2022/05/28 02:00:26;;;;;;;3.90;2.30;;;14.60;99.90;;;;;;5034287;28;20173;-56
2022/05/28 02:02:53;;;;;;;2.30;2.20;;;14.60;99.90;;;;;;5034263;28;20249;-54
2022/05/28 02:05:18;;;;;;;2.67;2.30;;;14.60;99.90;;;;;;5033892;28;20204;-57
2022/05/28 02:07:44;;;;;;;2.87;2.57;;;14.60;99.90;;;;;;5034211;28;20184;-57
2022/05/28 02:10:16;;;;;;;3.00;2.00;;;14.60;99.90;;;;;;5034278;28;20187;-57
2022/05/28 02:13:06;;;;;;;2.83;2.30;;;14.60;99.90;;;;;;5034167;28;20160;-55
2022/05/28 02:15:49;;;;;;;3.03;2.00;;;14.50;99.90;;;;;;5033778;28;20322;-55
2022/05/28 02:18:54;;;;;;;2.60;2.40;;;14.50;99.90;;;;;;5034115;28;20164;-56
2022/05/28 02:21:22;;;;;;;2.50;2.30;;;14.50;99.90;;;;;;5033585;28;20520;-54
2022/05/28 02:24:21;;;;;;;2.80;2.60;;;14.50;99.90;;;;;;5033096;28;20171;-52
2022/05/28 02:26:50;;;;;;;4.13;2.47;;;14.50;99.90;;;;;;5033917;28;20229;-55
2022/05/28 02:29:17;;;;;;;2.60;2.40;;;14.60;99.90;;;;;;5033859;28;20247;-54
2022/05/28 02:31:47;;;;;;;4.03;2.23;;;14.40;99.90;;;;;;5033854;28;20183;-58
2022/05/28 02:34:14;;;;;;;3.57;2.50;;;14.30;99.90;;;;;;5033361;28;20696;-54
2022/05/28 02:36:40;;;;;;;3.50;2.63;;;14.20;99.90;;;;;;5033535;28;20180;-55
2022/05/28 02:39:06;;;;;;;2.43;2.23;;;14.20;99.90;;;;;;5033565;28;20625;-55
2022/05/28 02:41:32;;;;;;;2.57;2.37;;;14.10;99.90;;;;;;5033628;28;20282;-58
2022/05/28 02:43:57;;;;;;;2.57;2.37;;;14.10;99.90;;;;;;5033112;28;20179;-57
2022/05/28 02:46:23;;;;;;;3.53;2.60;;;14.10;99.90;;;;;;5033422;28;20176;-55
2022/05/28 02:48:49;;;;;;;6.43;2.87;;;14.10;99.90;;;;;;5033180;28;20187;-56
2022/05/28 02:51:19;;;;;;;4.13;2.63;;;14.20;99.90;;;;;;5033379;28;20542;-57
2022/05/28 02:53:45;;;;;;;4.20;2.70;;;14.20;99.90;;;;;;5033191;28;20192;-54
2022/05/28 02:56:11;;;;;;;4.43;2.50;;;14.30;99.90;;;;;;5033261;28;20196;-58
2022/05/28 02:58:37;;;;;;;4.57;2.43;;;14.20;99.90;;;;;;5033175;28;20168;-55
2022/05/28 03:01:15;;;;;;;3.07;2.40;;;14.20;99.90;;;;;;5033358;28;20168;-56
2022/05/28 03:03:40;;;;;;;2.63;2.30;;;14.20;99.90;;;;;;5033042;28;20163;-54
2022/05/28 03:06:06;;;;;;;2.83;2.03;;;14.10;99.90;;;;;;5033021;28;20581;-59
2022/05/28 03:08:31;;;;;;;3.40;2.23;;;14.10;99.90;;;;;;5033125;28;20178;-55
2022/05/28 03:10:57;;;;;;;3.70;2.27;;;14.10;99.90;;;;;;5033099;28;20178;-58
2022/05/28 03:13:22;;;;;;;2.60;2.23;;;14.10;99.90;;;;;;5032755;28;20175;-58
2022/05/28 03:15:48;;;;;;;2.70;2.23;;;14.10;99.90;;;;;;5032676;28;20199;-58
2022/05/28 03:18:13;;;;;;;2.63;2.00;;;14.00;99.90;;;;;;5033110;28;20661;-55
2022/05/28 03:20:39;;;;;;;3.60;2.30;;;14.10;99.90;;;;;;5032948;28;20175;-56
2022/05/28 03:23:04;;;;;;;2.93;2.20;;;14.10;99.90;;;;;;5032906;28;20230;-53
2022/05/28 03:25:30;;;;;;;3.13;2.50;;;14.10;99.90;;;;;;5032477;28;20202;-57
2022/05/28 03:27:56;;;;;;;4.17;2.17;;;14.10;99.90;;;;;;5032499;28;20645;-57
2022/05/28 03:30:21;;;;;;;2.70;2.10;;;14.00;99.90;;;;;;5032538;28;20199;-57
2022/05/28 03:32:47;;;;;;;3.97;2.53;;;14.00;99.90;;;;;;5032236;28;20171;-58
2022/05/28 03:35:13;;;;;;;2.80;2.00;;;14.00;99.90;;;;;;5032152;28;20216;-56
2022/05/28 03:37:38;;;;;;;2.83;2.03;;;14.20;99.90;;;;;;5032472;28;20225;-59
2022/05/28 03:40:05;;;;;;;3.00;2.30;;;14.00;99.90;;;;;;5032635;28;20258;-57
2022/05/28 03:42:30;;;;;;;2.57;2.20;;;14.00;99.90;;;;;;5032400;28;20297;-56
2022/05/28 03:44:56;;;;;;;4.80;2.60;;;14.00;99.90;;;;;;5031998;28;20220;-54
2022/05/28 03:47:21;;;;;;;3.53;2.27;;;14.00;99.90;;;;;;5032342;28;20199;-54
2022/05/28 03:49:47;;;;;;;3.57;2.37;;;13.90;99.90;;;;;;5032229;28;20206;-55
2022/05/28 03:52:14;;;;;;;2.87;2.13;;;13.90;99.90;;;;;;5032302;28;20176;-58
2022/05/28 03:54:43;;;;;;;2.97;2.43;;;13.90;99.90;;;;;;5031698;28;20202;-59
2022/05/28 03:57:19;;;;;;;4.07;2.33;;;13.90;99.90;;;;;;5032106;28;20198;-57
2022/05/28 03:59:45;;;;;;;3.57;2.33;;;13.90;99.90;;;;;;5032156;28;20179;-56
2022/05/28 04:02:11;;;;;;;3.63;2.27;;;13.90;99.90;;;;;;5032152;28;20175;-55
2022/05/28 04:04:37;;;;;;;3.57;2.30;;;13.90;99.90;;;;;;5031656;28;20260;-56
2022/05/28 04:07:02;;;;;;;2.77;2.30;;;13.80;99.90;;;;;;5031923;28;20182;-57
2022/05/28 04:09:28;;;;;;;5.47;2.53;;;13.70;99.90;;;;;;5031933;28;20258;-56
2022/05/28 04:11:53;;;;;;;4.97;2.40;;;13.70;99.90;;;;;;5025894;28;20205;-53
2022/05/28 04:14:19;;;;;;;3.33;2.10;;;13.80;99.90;;;;;;5031339;28;20203;-51
2022/05/28 04:16:45;;;;;;;4.73;2.50;;;13.70;99.90;;;;;;5032018;28;20179;-54
2022/05/28 04:19:10;;;;;;;5.17;2.40;;;13.60;99.90;;;;;;5031732;28;20168;-57
2022/05/28 04:21:36;;;;;;;4.53;2.10;;;13.60;99.90;;;;;;5031661;28;20188;-53
2022/05/28 04:24:03;;;;;;;2.90;2.10;;;13.50;99.90;;;;;;5031284;28;20195;-53
2022/05/28 04:26:29;;;;;;;3.80;2.33;;;13.60;99.90;;;;;;5031570;28;20186;-57
2022/05/28 04:28:54;;;;;;;4.77;2.23;;;13.60;99.90;;;;;;5031623;28;20547;-54
2022/05/28 04:31:20;;;;;;;5.13;2.40;;;13.50;99.90;;;;;;5031644;28;20178;-54
2022/05/28 04:33:46;;;;;;;3.53;2.30;;;13.50;99.90;;;;;;5031164;28;20213;-55
2022/05/28 04:36:11;;;;;;;6.67;2.40;;;13.50;99.90;;;;;;5031423;28;20277;-56
2022/05/28 04:38:37;;;;;;;3.60;2.40;;;13.60;99.90;;;;;;5031765;28;20185;-54
2022/05/28 04:41:02;;;;;;;4.57;2.47;;;13.70;99.90;;;;;;5031658;28;20317;-55
2022/05/28 04:43:28;;;;;;;5.27;2.80;;;13.60;99.90;;;;;;5031116;28;20243;-56
2022/05/28 04:45:53;;;;;;;3.47;2.40;;;13.50;99.90;;;;;;5030572;28;20195;-55
2022/05/28 04:48:19;;;;;;;3.90;2.53;;;13.40;99.90;;;;;;5031189;28;20175;-53
2022/05/28 04:50:44;;;;;;;3.60;2.33;;;13.40;99.90;;;;;;5031384;28;20171;-55
2022/05/28 04:53:10;;;;;;;3.73;2.10;;;13.40;99.90;;;;;;5031336;28;20224;-56
2022/05/28 04:55:37;;;;;;;4.10;2.37;;;13.30;99.90;;;;;;5030954;28;20581;-55
2022/05/28 04:58:03;;;;;;;5.20;2.80;;;14.80;99.90;;;;;;5031237;28;20186;-54
2022/05/28 05:00:28;;;;;;;4.40;2.47;;;13.40;99.90;;;;;;5030040;28;20229;-51
2022/05/28 05:02:54;;;;;;;3.10;2.37;;;13.30;99.90;;;;;;5031245;28;20168;-56
2022/05/28 05:05:20;;;;;;;6.87;2.80;;;13.40;99.90;;;;;;5030881;28;20218;-54
2022/05/28 05:07:46;;;;;;;4.63;2.70;;;13.40;99.90;;;;;;5031253;28;20648;-57
2022/05/28 05:10:11;;;;;;;5.37;2.57;;;13.40;99.90;;;;;;5031155;28;20192;-55
2022/05/28 05:12:37;;;;;;;4.23;2.70;;;13.40;99.90;;;;;;5031455;28;20495;-54
2022/05/28 05:15:04;;;;;;;3.90;2.53;;;13.30;99.90;;;;;;5030690;28;20645;-53
2022/05/28 05:17:29;;;;;;;4.47;2.57;;;13.20;99.90;;;;;;5030997;28;20175;-56
2022/05/28 05:19:55;;;;;;;3.87;2.60;;;13.20;99.90;;;;;;5031082;28;20530;-54
2022/05/28 05:22:20;;;;;;;7.07;2.80;;;13.30;99.90;;;;;;5031113;28;20169;-56
2022/05/28 05:24:46;;;;;;;5.00;2.70;;;13.30;99.90;;;;;;5030558;28;20265;-55
2022/05/28 05:27:12;;;;;;;5.30;2.73;;;13.30;99.90;;;;;;5031013;28;20188;-56
2022/05/28 05:29:38;;;;;;;4.23;2.37;;;13.30;99.90;;;;;;5030945;28;20648;-58
2022/05/28 05:32:04;;;;;;;5.63;2.50;;;13.40;99.90;;;;;;5030903;28;20170;-57
2022/05/28 05:34:30;;;;;;;2.53;2.10;;;13.30;99.90;;;;;;5030648;28;20284;-53
2022/05/28 05:36:56;;;;;;;5.87;2.73;;;13.40;99.90;;;;;;5031245;28;20182;-56
2022/05/28 05:39:21;;;;;;;6.10;2.60;;;13.40;99.90;;;;;;5030806;28;20171;-56
2022/05/28 05:41:47;;;;;;;5.60;2.60;;;13.40;99.90;;;;;;5031111;28;20182;-56
2022/05/28 05:44:13;;;;;;;3.53;2.30;;;13.50;99.90;;;;;;5030468;28;20175;-55
2022/05/28 05:46:42;;;;;;;4.70;2.50;;;13.70;99.90;;;;;;5030794;28;20198;-57
2022/05/28 05:49:09;;;;;;;2.17;2.00;;;13.80;99.90;;;;;;5030730;28;20185;-59
2022/05/28 05:51:44;;;;;;;4.27;2.57;;;14.60;99.90;;;;;;5030735;28;20176;-59
2022/05/28 05:54:11;;;;;;;3.53;2.30;;;13.90;99.90;;;;;;5030090;28;20202;-54
2022/05/28 05:56:36;;;;;;;4.57;2.40;;;13.90;99.90;;;;;;5028071;28;20187;-55
2022/05/28 05:59:03;;;;;;;4.67;2.20;;;13.90;99.90;;;;;;5034808;28;20212;-55
2022/05/28 06:01:28;;;;;;;4.80;2.50;;;15.30;99.90;;;;;;5032190;28;20182;-56
2022/05/28 06:03:54;;;;;;;6.03;2.50;;;14.00;99.90;;;;;;5027376;28;20192;-57
2022/05/28 06:06:20;;;;;;;3.60;2.50;;;14.00;99.90;;;;;;5008604;28;20534;-55
2022/05/28 06:08:46;;;;;;;5.03;2.40;;;13.90;99.90;;;;;;5026473;28;20183;-54
2022/05/28 06:11:12;;;;;;;9.53;2.67;;;14.00;99.90;;;;;;5024780;28;20173;-58
2022/05/28 06:13:38;;;;;;;3.20;1.80;;;14.10;99.90;;;;;;5026147;28;20590;-55
2022/05/28 06:16:04;;;;;;;4.17;2.10;;;14.20;99.90;;;;;;5027239;28;20195;-53
2022/05/28 06:18:30;;;;;;;4.17;2.20;;;14.20;99.90;;;;;;5026661;28;20542;-53
2022/05/28 06:20:57;;;;;;;3.67;1.93;;;14.20;99.90;;;;;;5027033;28;20176;-57
2022/05/28 06:23:23;;;;;;;3.90;2.20;;;14.40;99.90;;;;;;5029554;28;20179;-55
2022/05/28 06:25:49;;;;;;;3.93;2.33;;;14.50;99.90;;;;;;5045092;28;20187;-57
2022/05/28 06:28:14;;;;;;;2.70;2.20;;;14.50;99.90;;;;;;5035671;28;20568;-54
2022/05/28 06:30:43;;;;;;;6.30;2.20;;;14.50;99.90;;;;;;5029059;28;20873;-53
2022/05/28 06:33:09;;;;;;;4.93;2.20;;;14.40;99.90;;;;;;5026585;28;20172;-53
2022/05/28 06:35:34;;;;;;;6.57;2.20;;;14.30;99.90;;;;;;5024324;28;20215;-53
2022/05/28 06:38:00;;;;;;;6.30;2.33;;;14.20;99.90;;;;;;5026446;28;20172;-57
2022/05/28 06:40:27;;;;;;;3.60;2.07;;;14.30;99.90;;;;;;5027074;28;20173;-56
2022/05/28 06:42:55;;;;;;;3.27;2.00;;;14.60;99.90;;;;;;5025328;28;20165;-56
2022/05/28 06:45:20;;;;;;;5.33;2.00;;;14.40;99.90;;;;;;5024731;28;20246;-58
2022/05/28 06:47:46;;;;;;;7.03;2.00;;;14.40;99.90;;;;;;5028507;28;20176;-54
2022/05/28 06:52:59;;;;;;;9.53;2.27;;;14.70;99.90;;;;;;5041319;28;20238;-54
2022/05/28 06:55:24;;;;;;;5.40;2.03;;;14.50;99.90;;;;;;5051869;28;20199;-55
2022/05/28 06:57:50;;;;;;;6.43;1.70;;;14.30;99.90;;;;;;5052958;28;20181;-56
2022/05/28 07:00:16;;;;;;;4.63;1.97;;;14.20;99.90;;;;;;5052594;28;20172;-54
2022/05/28 07:02:41;;;;;;;6.33;2.57;;;14.40;99.90;;;;;;5052767;28;20183;-55
2022/05/28 07:05:07;;;;;;;4.30;2.07;;;14.60;99.90;;;;;;5052356;28;20549;-56
2022/05/28 07:07:33;;;;;;;5.03;2.00;;;14.70;99.90;;;;;;5053414;28;20274;-54
2022/05/28 07:09:58;;;;;;;4.93;1.97;;;14.90;99.90;;;;;;5052513;28;20256;-52
2022/05/28 07:12:24;;;;;;;4.90;1.90;;;15.10;99.90;;;;;;5052771;28;20255;-55
2022/05/28 07:14:49;;;;;;;6.10;2.20;;;15.10;99.90;;;;;;5052257;28;20214;-54
2022/05/28 07:17:15;;;;;;;7.03;2.10;;;15.10;99.90;;;;;;5052775;28;20175;-55
2022/05/28 07:19:41;;;;;;;5.87;1.70;;;15.10;99.90;;;;;;5052596;28;20175;-55
2022/05/28 07:22:07;;;;;;;6.37;1.80;;;15.10;99.90;;;;;;5052591;28;20537;-53
2022/05/28 07:24:33;;;;;;;4.43;1.87;;;15.20;99.90;;;;;;5052212;28;20198;-53
2022/05/28 07:26:59;;;;;;;5.73;1.53;;;15.30;99.90;;;;;;5052889;28;20182;-55
2022/05/28 07:29:25;;;;;;;7.90;2.10;;;15.20;99.90;;;;;;5052449;28;20633;-54
2022/05/28 07:31:50;;;;;;;10.30;2.07;;;15.10;99.90;;;;;;5052564;28;20221;-55
2022/05/28 07:34:16;;;;;;;4.40;1.70;;;15.10;99.90;;;;;;5052102;28;20207;-53
2022/05/28 07:36:41;;;;;;;2.27;1.40;;;15.00;99.90;;;;;;5052526;28;20174;-55
2022/05/28 07:39:07;;;;;;;5.80;1.50;;;15.10;99.90;;;;;;5052685;28;20176;-57
2022/05/28 07:41:32;;;;;;;2.83;1.50;;;15.20;99.90;;;;;;5052489;28;20258;-57
2022/05/28 07:43:58;;;;;;;3.17;1.33;;;15.20;99.90;;;;;;5052001;28;20187;-53
2022/05/28 07:46:27;;;;;;;4.20;1.80;;;15.10;99.90;;;;;;5052209;28;20228;-55
2022/05/28 07:48:55;;;;;;;5.53;1.57;;;15.00;99.90;;;;;;5052212;28;20176;-53
2022/05/28 07:51:20;;;;;;;3.77;1.30;;;15.00;99.90;;;;;;5052294;28;20182;-57
2022/05/28 07:53:46;;;;;;;3.43;1.10;;;15.00;99.90;;;;;;5051922;28;20175;-56
2022/05/28 07:56:12;;;;;;;1.77;0.90;;;15.00;99.90;;;;;;5052416;28;20210;-57
2022/05/28 07:58:39;;;;;;;4.70;1.83;;;14.90;99.90;;;;;;5052088;28;20170;-55
2022/05/28 08:01:06;;;;;;;2.67;1.30;;;14.70;99.90;;;;;;5051954;28;20612;-56
2022/05/28 08:03:32;;;;;;;3.47;1.30;;;14.70;99.90;;;;;;5051715;28;20166;-56
2022/05/28 08:05:58;;;;;;;2.40;1.00;;;14.80;99.90;;;;;;5051779;28;20207;-55
2022/05/28 08:08:26;;;;;;;3.37;1.10;;;15.00;99.90;;;;;;5051963;28;20186;-56
2022/05/28 08:10:52;;;;;;;2.97;1.27;;;15.20;99.90;;;;;;5051965;28;20202;-53
2022/05/28 08:13:20;;;;;;;2.50;1.13;;;15.10;99.90;;;;;;5051919;28;20202;-58
2022/05/28 08:15:48;;;;;;;3.17;1.40;;;15.20;99.90;;;;;;5051503;28;20211;-55
2022/05/28 08:18:16;;;;;;;3.57;1.47;;;15.10;99.90;;;;;;5051750;28;20179;-53
2022/05/28 08:23:26;;;;;;;2.40;1.23;;;14.90;99.90;;;;;;5051860;28;20274;-56
2022/05/28 08:25:52;;;;;;;6.13;1.70;;;14.90;99.90;;;;;;5051552;28;20203;-54
2022/05/28 08:28:19;;;;;;;5.17;1.80;;;15.00;99.90;;;;;;5051555;28;20175;-52
2022/05/28 08:30:45;;;;;;;2.93;1.50;;;16.70;99.90;;;;;;5051541;28;20258;-57
2022/05/28 08:33:13;;;;;;;4.83;1.20;;;15.50;99.90;;;;;;5051620;28;20179;-53
2022/05/28 08:35:40;;;;;;;6.80;1.27;;;15.30;99.90;;;;;;5051126;28;20203;-57
2022/05/28 08:38:09;;;;;;;4.30;1.07;;;15.40;99.90;;;;;;5051497;28;20583;-52
2022/05/28 08:41:00;;;;;;;3.33;1.20;;;15.50;99.90;;;;;;5051529;28;20510;-58
2022/05/28 08:43:30;;;;;;;3.17;1.00;;;15.50;99.90;;;;;;4970100;28;20201;-53
2022/05/28 08:45:55;;;;;;;3.20;1.27;;;15.70;99.90;;;;;;4961111;28;20293;-53
2022/05/28 08:48:29;;;;;;;3.33;1.30;;;15.80;99.90;;;;;;4970313;28;20630;-57
2022/05/28 08:51:04;;;;;;;3.13;1.17;;;15.80;99.90;;;;;;4970565;28;20188;-57
2022/05/28 08:53:35;;;;;;;1.73;1.03;;;15.50;99.90;;;;;;4970212;28;20162;-54
2022/05/28 08:56:02;;;;;;;5.07;1.40;;;15.10;99.90;;;;;;4970377;28;20198;-52
2022/05/28 08:58:29;;;;;;;2.50;0.87;;;15.00;99.90;;;;;;4970366;28;20205;-53
2022/05/28 09:01:06;;;;;;;2.93;1.10;;;15.30;99.90;;;;;;4970272;28;20186;-54
2022/05/28 09:03:51;;;;;;;4.43;1.17;;;15.60;99.90;;;;;;4969977;28;20184;-56
2022/05/28 09:06:34;;;;;;;2.10;1.17;;;15.80;99.90;;;;;;4970175;28;20245;-54
2022/05/28 09:09:00;;;;;;;4.10;1.20;;;16.00;99.90;;;;;;4970340;28;20294;-54
2022/05/28 09:11:32;;;;;;;2.27;1.43;;;16.00;99.90;;;;;;4970351;28;20195;-53
2022/05/28 09:14:08;;;;;;;3.33;1.03;;;16.10;99.90;;;;;;4969753;28;20213;-52
2022/05/28 09:16:36;;;;;;;1.30;0.87;;;16.20;99.90;;;;;;4970149;28;20205;-55
2022/05/28 09:19:06;;;;;;;2.07;1.03;;;16.30;99.90;;;;;;4970142;28;20187;-54
2022/05/28 09:21:31;;;;;;;1.57;0.87;;;16.60;99.90;;;;;;5007898;28;20180;-56
2022/05/28 09:24:26;;;;;;;1.50;0.90;;;16.80;99.90;;;;;;5011074;28;20200;-54
2022/05/28 09:27:19;;;;;;;1.80;0.90;;;17.00;99.90;;;;;;5011528;28;20171;-53
2022/05/28 09:30:08;;;;;;;2.60;0.80;;;17.10;99.90;;;;;;5011266;28;20654;-57
2022/05/28 09:33:17;;;;;;;3.20;1.17;;;16.90;99.90;;;;;;5014172;28;20523;-55
2022/05/28 09:35:45;;;;;;;3.30;1.07;;;17.10;99.90;;;;;;5014861;28;20574;-59
2022/05/28 09:38:29;;;;;;;3.00;1.03;;;17.30;99.90;;;;;;5015184;28;20177;-53
2022/05/28 09:41:19;;;;;;;1.20;0.90;;;17.30;99.90;;;;;;5015087;28;20168;-56
2022/05/28 09:44:03;;;;;;;4.60;1.13;;;17.10;99.30;;;;;;5014774;28;20250;-52
2022/05/28 09:46:39;;;;;;;1.33;0.83;;;17.10;99.90;;;;;;5014957;28;20164;-53
2022/05/28 09:49:12;;;;;;;3.10;0.93;;;17.00;99.90;;;;;;5014885;28;20657;-52
2022/05/28 09:51:38;;;;;;;1.97;1.10;;;16.90;99.90;;;;;;5014762;28;20176;-54
2022/05/28 09:54:20;;;;;;;2.53;1.20;;;16.90;99.90;;;;;;5014392;28;20331;-56
2022/05/28 09:57:10;;;;;;;3.20;1.20;;;17.00;99.90;;;;;;5014785;28;20656;-55
2022/05/28 09:59:46;;;;;;;2.43;0.83;;;16.70;99.90;;;;;;5014579;28;20150;-52
2022/05/28 10:02:30;;;;;;;2.73;0.90;;;16.60;99.90;;;;;;5014651;28;20652;-52
2022/05/28 10:05:17;;;;;;;2.43;1.00;;;16.50;99.90;;;;;;5014167;28;20212;-53
2022/05/28 10:07:51;;;;;;;2.03;1.10;;;16.50;99.90;;;;;;5014537;28;20179;-52
2022/05/28 10:10:31;;;;;;;1.60;1.00;;;16.80;99.90;;;;;;5014511;28;20209;-56
2022/05/28 10:13:13;;;;;;;4.43;0.73;;;16.90;99.90;;;;;;5014392;28;20203;-51
2022/05/28 10:15:46;;;;;;;3.73;1.13;;;16.70;99.40;;;;;;5014037;28;20284;-53
2022/05/28 10:18:21;;;;;;;3.57;0.90;;;16.60;99.70;;;;;;5014303;28;20306;-55
2022/05/28 10:21:17;;;;;;;1.80;0.90;;;16.50;99.70;;;;;;5014314;28;20176;-55
2022/05/28 10:23:50;;;;;;;2.70;0.57;;;16.50;98.80;;;;;;4934149;29;20195;-50
2022/05/28 10:26:21;;;;;;;2.20;1.00;;;16.20;99.90;;;;;;4934451;29;20340;-55
2022/05/28 10:28:53;;;;;;;1.53;0.73;;;16.10;99.90;;;;;;4934247;29;20188;-54
2022/05/28 10:31:40;;;;;;;2.97;0.70;;;16.10;99.90;;;;;;4934151;29;20176;-56
2022/05/28 10:34:07;;;;;;;1.97;0.90;;;16.30;99.90;;;;;;4933763;29;20632;-54
2022/05/28 10:36:35;;;;;;;2.47;1.17;;;16.60;99.90;;;;;;4934291;29;20254;-53
2022/05/28 10:39:11;;;;;;;2.50;0.70;;;16.70;98.00;;;;;;4934211;29;20178;-55
2022/05/28 10:41:37;;;;;;;2.63;1.03;;;16.80;99.60;;;;;;4934022;29;20273;-56
2022/05/28 10:44:05;;;;;;;2.07;0.73;;;17.00;99.90;;;;;;4932676;29;20187;-57
2022/05/28 10:46:49;;;;;;;4.23;0.93;;;17.30;99.80;;;;;;4933920;29;20187;-54
2022/05/28 10:49:41;;;;;;;1.13;0.70;;;17.40;98.50;;;;;;4933915;29;20179;-53
2022/05/28 10:52:21;;;;;;;2.00;1.10;;;17.50;98.10;;;;;;4933968;29;20267;-55
2022/05/28 10:55:07;;;;;;;1.03;0.60;;;17.50;99.30;;;;;;4933569;29;20223;-53
2022/05/28 10:57:44;;;;;;;2.27;0.90;;;17.30;98.60;;;;;;4933807;29;20665;-58
2022/05/28 11:00:36;;;;;;;3.13;0.70;;;17.30;98.60;;;;;;4976112;28;20184;-57
2022/05/28 11:03:30;;;;;;;1.87;0.77;;;17.30;99.50;;;;;;5013574;28;20165;-53
2022/05/28 11:06:31;;;;;;;1.37;0.60;;;17.10;95.80;;;;;;5013265;28;20208;-51
2022/05/28 11:09:06;;;;;;;1.27;0.80;;;17.10;98.30;;;;;;5013432;28;20177;-55
2022/05/28 11:11:43;;;;;;;2.03;1.00;;;17.10;97.10;;;;;;5013414;28;20513;-54
2022/05/28 11:14:16;;;;;;;3.60;0.60;;;17.00;98.40;;;;;;5012953;28;20208;-59
2022/05/28 11:16:52;;;;;;;1.07;0.87;;;17.20;98.20;;;;;;5013191;28;20165;-54
2022/05/28 11:19:54;;;;;;;2.97;1.00;;;17.40;98.00;;;;;;5013152;28;20685;-56
2022/05/28 11:22:38;;;;;;;1.83;0.87;;;17.50;97.10;;;;;;5013153;28;20650;-58
2022/05/28 11:25:11;;;;;;;4.27;0.70;;;17.30;98.00;;;;;;5012807;28;20292;-56
2022/05/28 11:27:41;;;;;;;2.40;0.70;;;17.30;97.00;;;;;;5012973;28;20240;-58
2022/05/28 11:30:07;;;;;;;2.33;0.60;;;17.50;98.60;;;;;;5012820;28;20176;-57
2022/05/28 11:32:47;;;;;;;1.50;0.77;;;17.50;97.50;;;;;;5012990;28;20181;-58
2022/05/28 11:35:17;;;;;;;2.83;0.80;;;17.50;96.90;;;;;;5012531;28;20702;-56
2022/05/28 11:37:52;;;;;;;1.63;0.93;;;17.40;96.10;;;;;;5012768;28;20300;-54
2022/05/28 11:40:32;;;;;;;1.67;0.80;;;17.30;96.00;;;;;;5012853;28;20264;-53
2022/05/28 11:43:03;;;;;;;3.00;1.10;;;17.30;96.10;;;;;;5012931;28;20153;-54
2022/05/28 11:45:49;;;;;;;2.40;0.60;;;17.20;96.70;;;;;;5012333;28;20220;-55
2022/05/28 11:51:27;;;;;;;2.43;0.60;;;17.20;97.40;;;;;;5012470;28;20165;-55
2022/05/28 11:51:28;;;;;;;3.20;0.80;;;17.30;97.80;;;;;;5012478;28;20206;-56
2022/05/28 11:54:04;;;;;;;2.20;0.93;;;17.60;97.40;;;;;;5012008;28;20165;-56
2022/05/28 11:56:30;;;;;;;1.60;0.80;;;17.40;96.20;;;;;;5012554;28;20172;-58
2022/05/28 11:59:02;;;;;;;1.80;0.87;;;17.40;98.50;;;;;;5012491;28;20689;-54
2022/05/28 12:01:36;;;;;;;1.40;0.73;;;17.60;97.90;;;;;;5012498;28;20263;-56
2022/05/28 12:04:01;;;;;;;1.40;0.80;;;17.60;95.60;;;;;;5012029;28;20639;-57
2022/05/28 12:06:34;;;;;;;3.60;1.00;;;17.30;97.40;;;;;;5012490;28;20157;-53
2022/05/28 12:09:00;;;;;;;1.80;0.77;;;17.40;96.70;;;;;;5012294;28;20664;-54
2022/05/28 12:12:08;;;;;;;3.53;0.80;;;17.40;96.70;;;;;;5012383;28;20181;-56
2022/05/28 12:14:41;;;;;;;1.13;0.67;;;17.30;96.70;;;;;;4931997;29;20840;-53
2022/05/28 12:17:22;;;;;;;1.40;0.70;;;17.40;95.70;;;;;;4932401;29;20226;-53
2022/05/28 12:19:53;;;;;;;2.23;1.00;;;17.40;96.80;;;;;;4932473;29;20159;-54
2022/05/28 12:22:25;;;;;;;1.90;0.80;;;17.40;96.90;;;;;;4932524;29;20545;-53
2022/05/28 12:25:31;;;;;;;1.73;0.90;;;17.40;96.50;;;;;;4931999;29;20215;-54
2022/05/28 12:27:57;;;;;;;4.13;0.90;;;17.40;96.50;;;;;;4932233;29;20189;-56
2022/05/28 12:30:46;;;;;;;1.03;0.67;;;17.20;96.00;;;;;;4932190;29;20561;-53
2022/05/28 12:33:23;;;;;;;2.03;0.80;;;17.10;97.20;;;;;;4932397;29;20181;-56
2022/05/28 12:36:00;;;;;;;2.20;1.20;;;17.20;96.00;;;;;;4932015;29;20209;-54
2022/05/28 12:38:39;;;;;;;1.67;0.70;;;17.20;98.90;;;;;;4932173;29;20179;-54
2022/05/28 12:41:14;;;;;;;1.80;0.70;;;17.30;96.90;;;;;;4932242;29;20661;-52
2022/05/28 12:43:39;;;;;;;1.57;0.90;;;17.50;96.90;;;;;;4931806;29;20564;-51
2022/05/28 12:46:19;;;;;;;2.20;0.90;;;17.60;97.00;;;;;;4932010;29;20195;-56
2022/05/28 12:48:47;;;;;;;2.20;0.97;;;17.70;96.90;;;;;;4932041;29;20348;-54
2022/05/28 12:51:22;;;;;;;1.37;0.70;;;17.60;95.20;;;;;;5011755;28;20339;-52
2022/05/28 12:53:54;;;;;;;1.50;0.57;;;17.60;95.80;;;;;;5011617;28;20190;-55
2022/05/28 12:56:35;;;;;;;1.33;0.80;;;17.40;96.40;;;;;;5011707;28;20184;-55
2022/05/28 12:59:07;;;;;;;2.40;0.93;;;17.60;96.10;;;;;;5011581;28;20189;-53
2022/05/28 13:01:35;;;;;;;3.73;0.70;;;17.70;95.40;;;;;;5011572;28;20204;-52
2022/05/28 13:04:07;;;;;;;2.87;1.03;;;17.70;95.20;;;;;;5011231;28;20165;-52
2022/05/28 13:06:47;;;;;;;1.80;0.80;;;17.50;96.10;;;;;;5020641;28;20179;-52
2022/05/28 13:09:12;;;;;;;1.67;0.60;;;17.50;96.60;;;;;;5031709;28;20521;-53
2022/05/28 13:12:05;;;;;;;2.10;0.70;;;17.40;95.50;;;;;;5030277;28;20183;-54